createdAt,value
2018-01-16T00:00:27.435Z,0.00
2018-01-16T00:01:27.442Z,0.00
2018-01-16T00:02:27.409Z,0.00
2018-01-16T00:03:27.427Z,0.00
2018-01-16T00:04:27.389Z,0.00
2018-01-16T00:05:27.411Z,0.00
2018-01-16T00:06:27.382Z,0.00
2018-01-16T00:07:27.378Z,0.00
2018-01-16T00:08:27.385Z,0.00
2018-01-16T00:09:27.360Z,0.00
2018-01-16T00:10:27.348Z,0.00
2018-01-16T00:11:27.336Z,0.00
2018-01-16T00:12:27.336Z,0.00
2018-01-16T00:13:27.332Z,0.00
2018-01-16T00:14:27.340Z,0.00
2018-01-16T00:15:27.328Z,0.00
2018-01-16T00:16:27.306Z,0.00
2018-01-16T00:17:27.297Z,0.00
2018-01-16T00:18:27.285Z,0.00
2018-01-16T00:19:27.281Z,0.00
2018-01-16T00:20:27.265Z,0.00
2018-01-16T00:21:27.277Z,0.00
2018-01-16T00:22:27.297Z,0.00
2018-01-16T00:23:27.252Z,0.00
2018-01-16T00:24:27.236Z,0.00
2018-01-16T00:25:27.248Z,0.00
2018-01-16T00:26:27.218Z,0.00
2018-01-16T00:27:27.226Z,0.00
2018-01-16T00:28:27.206Z,0.00
2018-01-16T00:29:27.213Z,0.00
2018-01-16T00:30:27.211Z,0.00
2018-01-16T00:31:27.185Z,0.00
2018-01-16T00:32:27.184Z,0.00
2018-01-16T00:33:27.173Z,0.00
2018-01-16T00:34:27.165Z,0.00
2018-01-16T00:35:27.156Z,0.00
2018-01-16T00:36:27.150Z,0.00
2018-01-16T00:37:27.161Z,0.00
2018-01-16T00:38:27.143Z,0.00
2018-01-16T00:39:27.122Z,0.00
2018-01-16T00:40:27.118Z,0.00
2018-01-16T00:41:27.104Z,0.00
2018-01-16T00:42:27.120Z,0.00
2018-01-16T00:43:27.098Z,0.00
2018-01-16T00:44:27.136Z,0.00
2018-01-16T00:45:27.192Z,0.00
2018-01-16T00:46:27.101Z,0.00
2018-01-16T00:47:27.107Z,0.00
2018-01-16T00:48:27.075Z,0.00
2018-01-16T00:49:27.070Z,0.00
2018-01-16T00:50:27.094Z,0.00
2018-01-16T00:51:27.050Z,0.00
2018-01-16T00:52:27.035Z,0.00
2018-01-16T00:53:27.112Z,0.00
2018-01-16T00:54:27.075Z,0.00
2018-01-16T00:55:27.036Z,0.00
2018-01-16T00:56:27.010Z,0.00
2018-01-16T00:57:27.050Z,0.00
2018-01-16T00:58:27.057Z,0.00
2018-01-16T00:59:26.996Z,0.00
2018-01-16T01:00:27.011Z,0.00
2018-01-16T01:01:26.986Z,0.00
2018-01-16T01:02:26.958Z,0.00
2018-01-16T01:03:26.963Z,0.00
2018-01-16T01:04:26.953Z,0.00
2018-01-16T01:05:26.945Z,0.00
2018-01-16T01:06:26.983Z,0.00
2018-01-16T01:07:26.918Z,0.00
2018-01-16T01:08:26.915Z,0.00
2018-01-16T01:09:26.915Z,0.00
2018-01-16T01:10:26.947Z,0.00
2018-01-16T01:11:26.944Z,0.00
2018-01-16T01:12:26.871Z,0.00
2018-01-16T01:13:26.882Z,0.00
2018-01-16T01:14:26.894Z,0.00
2018-01-16T01:15:26.863Z,0.00
2018-01-16T01:16:26.862Z,0.00
2018-01-16T01:17:26.879Z,0.00
2018-01-16T01:18:26.838Z,0.00
2018-01-16T01:19:26.867Z,0.00
2018-01-16T01:20:26.818Z,0.00
2018-01-16T01:21:26.883Z,0.00
2018-01-16T01:22:26.813Z,0.00
2018-01-16T01:23:26.836Z,0.00
2018-01-16T01:24:26.791Z,0.00
2018-01-16T01:25:26.773Z,0.00
2018-01-16T01:26:26.766Z,0.00
2018-01-16T01:27:29.319Z,0.00
2018-01-16T01:28:26.769Z,0.00
2018-01-16T01:29:26.748Z,0.00
2018-01-16T01:30:26.770Z,0.00
2018-01-16T01:31:27.289Z,0.00
2018-01-16T01:32:27.344Z,0.00
2018-01-16T01:33:26.693Z,0.00
2018-01-16T01:34:27.284Z,0.00
2018-01-16T01:35:26.755Z,0.00
2018-01-16T01:36:26.706Z,0.00
2018-01-16T01:37:26.673Z,0.00
2018-01-16T01:38:26.668Z,0.00
2018-01-16T01:39:27.291Z,0.00
2018-01-16T01:40:26.752Z,0.00
2018-01-16T01:41:26.645Z,0.00
2018-01-16T01:42:26.620Z,0.00
2018-01-16T01:43:26.647Z,0.00
2018-01-16T01:44:26.636Z,0.00
2018-01-16T01:45:26.608Z,0.00
2018-01-16T01:46:26.594Z,0.00
2018-01-16T01:47:26.601Z,0.00
2018-01-16T01:48:26.576Z,0.00
2018-01-16T01:49:26.603Z,0.00
2018-01-16T01:50:26.569Z,0.00
2018-01-16T01:51:26.544Z,0.00
2018-01-16T01:52:26.561Z,0.00
2018-01-16T01:53:26.607Z,0.00
2018-01-16T01:54:26.554Z,0.00
2018-01-16T01:55:26.536Z,0.00
2018-01-16T01:56:26.550Z,0.00
2018-01-16T01:57:26.655Z,0.00
2018-01-16T01:58:26.612Z,0.00
2018-01-16T01:59:26.617Z,0.00
2018-01-16T02:00:26.517Z,0.00
2018-01-16T02:01:26.522Z,0.00
2018-01-16T02:02:26.554Z,0.00
2018-01-16T02:03:26.519Z,0.00
2018-01-16T02:04:26.533Z,0.00
2018-01-16T02:05:26.526Z,0.00
2018-01-16T02:06:26.447Z,0.00
2018-01-16T02:07:26.432Z,0.00
2018-01-16T02:08:26.441Z,0.00
2018-01-16T02:09:26.492Z,0.00
2018-01-16T02:10:26.601Z,0.00
2018-01-16T02:11:26.409Z,0.00
2018-01-16T02:12:26.421Z,0.00
2018-01-16T02:13:26.455Z,0.00
2018-01-16T02:14:26.370Z,0.00
2018-01-16T02:15:26.375Z,0.00
2018-01-16T02:16:26.374Z,0.00
2018-01-16T02:17:26.363Z,0.00
2018-01-16T02:18:26.323Z,0.00
2018-01-16T02:19:26.314Z,0.00
2018-01-16T02:20:26.313Z,0.00
2018-01-16T02:21:26.408Z,0.00
2018-01-16T02:22:26.493Z,0.00
2018-01-16T02:23:26.324Z,0.00
2018-01-16T02:24:26.377Z,0.00
2018-01-16T02:24:38.460Z,0.00
2018-01-16T02:26:26.830Z,0.00
2018-01-16T02:27:26.289Z,0.00
2018-01-16T02:28:26.434Z,0.00
2018-01-16T02:29:26.302Z,0.00
2018-01-16T02:30:26.356Z,0.00
2018-01-16T02:31:28.986Z,0.00
2018-01-16T02:32:26.321Z,0.00
2018-01-16T02:33:26.909Z,0.00
2018-01-16T02:34:26.490Z,0.00
2018-01-16T02:35:26.460Z,0.00
2018-01-16T02:36:26.501Z,0.00
2018-01-16T02:37:26.725Z,0.00
2018-01-16T02:38:26.245Z,0.00
2018-01-16T02:39:26.586Z,0.00
2018-01-16T02:40:26.693Z,0.00
2018-01-16T02:41:26.182Z,0.00
2018-01-16T02:42:26.124Z,0.00
2018-01-16T02:43:26.175Z,0.00
2018-01-16T02:44:28.852Z,0.00
2018-01-16T02:45:27.454Z,0.00
2018-01-16T02:46:26.202Z,0.00
2018-01-16T02:47:26.111Z,0.00
2018-01-16T02:48:26.111Z,0.00
2018-01-16T02:49:26.168Z,0.00
2018-01-16T02:50:26.316Z,0.00
2018-01-16T02:51:26.129Z,0.00
2018-01-16T02:52:26.106Z,0.00
2018-01-16T02:53:26.084Z,0.00
2018-01-16T02:54:26.154Z,0.00
2018-01-16T02:55:26.135Z,0.00
2018-01-16T02:56:26.164Z,0.00
2018-01-16T02:57:26.083Z,0.00
2018-01-16T02:58:26.961Z,0.00
2018-01-16T02:59:26.003Z,0.00
2018-01-16T03:00:26.010Z,0.00
2018-01-16T03:01:25.985Z,0.00
2018-01-16T03:02:25.977Z,0.00
2018-01-16T03:03:26.019Z,0.00
2018-01-16T03:04:26.138Z,0.00
2018-01-16T03:05:26.824Z,0.00
2018-01-16T03:06:25.989Z,0.00
2018-01-16T03:07:25.939Z,0.00
2018-01-16T03:08:25.986Z,0.00
2018-01-16T03:09:25.918Z,0.00
2018-01-16T03:10:25.909Z,0.00
2018-01-16T03:11:25.907Z,0.00
2018-01-16T03:12:25.894Z,0.00
2018-01-16T03:13:25.874Z,0.00
2018-01-16T03:14:25.849Z,0.00
2018-01-16T03:15:25.868Z,0.00
2018-01-16T03:16:25.836Z,0.00
2018-01-16T03:17:25.886Z,0.00
2018-01-16T03:18:25.837Z,0.00
2018-01-16T03:19:25.813Z,0.00
2018-01-16T03:20:25.801Z,0.00
2018-01-16T03:21:25.818Z,0.00
2018-01-16T03:22:25.776Z,0.00
2018-01-16T03:23:25.776Z,0.00
2018-01-16T03:24:25.768Z,0.00
2018-01-16T03:25:25.753Z,0.00
2018-01-16T03:26:25.744Z,0.00
2018-01-16T03:27:25.737Z,0.00
2018-01-16T03:28:25.735Z,0.00
2018-01-16T03:29:25.724Z,0.00
2018-01-16T03:30:25.714Z,0.00
2018-01-16T03:31:25.701Z,0.00
2018-01-16T03:32:25.724Z,0.00
2018-01-16T03:33:25.695Z,0.00
2018-01-16T03:34:25.701Z,0.00
2018-01-16T03:35:25.703Z,0.00
2018-01-16T03:36:25.681Z,0.00
2018-01-16T03:37:25.666Z,0.00
2018-01-16T03:38:25.643Z,0.00
2018-01-16T03:39:25.634Z,0.00
2018-01-16T03:40:25.629Z,0.00
2018-01-16T03:41:25.641Z,0.00
2018-01-16T03:42:25.648Z,0.00
2018-01-16T03:43:25.624Z,0.00
2018-01-16T03:44:25.603Z,0.00
2018-01-16T03:45:25.627Z,0.00
2018-01-16T03:46:25.596Z,0.00
2018-01-16T03:47:25.567Z,0.00
2018-01-16T03:48:25.601Z,0.00
2018-01-16T03:49:25.578Z,0.00
2018-01-16T03:50:25.575Z,0.00
2018-01-16T03:50:37.586Z,0.00
2018-01-16T03:52:25.568Z,0.00
2018-01-16T03:53:25.701Z,0.00
2018-01-16T03:54:26.555Z,0.00
2018-01-16T03:55:25.661Z,0.00
2018-01-16T03:58:42.383Z,0.00
2018-01-16T03:59:41.557Z,0.00
2018-01-16T04:00:41.086Z,0.00
2018-01-16T04:01:40.907Z,0.00
2018-01-16T04:02:43.044Z,0.00
2018-01-16T04:03:42.790Z,0.00
2018-01-16T04:04:55.405Z,0.00
2018-01-16T04:05:45.773Z,0.00
2018-01-16T04:06:45.818Z,0.00
2018-01-16T04:07:45.746Z,0.00
2018-01-16T04:08:45.729Z,0.00
2018-01-16T04:09:46.508Z,0.00
2018-01-16T04:10:45.689Z,0.00
2018-01-16T04:11:45.687Z,0.00
2018-01-16T04:12:45.681Z,0.00
2018-01-16T04:13:45.700Z,0.00
2018-01-16T04:14:45.665Z,0.00
2018-01-16T04:15:45.640Z,0.00
2018-01-16T04:16:45.635Z,0.00
2018-01-16T04:17:45.619Z,0.00
2018-01-16T04:18:45.649Z,0.00
2018-01-16T04:19:45.675Z,0.00
2018-01-16T04:20:45.730Z,0.00
2018-01-16T04:21:45.566Z,0.00
2018-01-16T04:22:45.598Z,0.00
2018-01-16T04:23:45.644Z,0.00
2018-01-16T04:24:45.559Z,0.00
2018-01-16T04:25:45.553Z,0.00
2018-01-16T04:26:45.566Z,0.00
2018-01-16T04:27:45.555Z,0.00
2018-01-16T04:28:45.536Z,0.00
2018-01-16T04:29:45.541Z,0.00
2018-01-16T04:30:45.525Z,0.00
2018-01-16T04:31:45.497Z,0.00
2018-01-16T04:32:45.509Z,0.00
2018-01-16T04:33:45.490Z,0.00
2018-01-16T04:34:45.480Z,0.00
2018-01-16T04:35:45.495Z,0.00
2018-01-16T04:36:45.477Z,0.00
2018-01-16T04:37:45.456Z,0.00
2018-01-16T04:38:45.462Z,0.00
2018-01-16T04:39:45.445Z,0.00
2018-01-16T04:40:45.415Z,0.00
2018-01-16T04:41:45.419Z,0.00
2018-01-16T04:42:45.435Z,0.00
2018-01-16T04:43:45.408Z,0.00
2018-01-16T04:44:45.377Z,0.00
2018-01-16T04:45:45.392Z,0.00
2018-01-16T04:46:45.377Z,0.00
2018-01-16T04:47:45.352Z,0.00
2018-01-16T04:48:45.372Z,0.00
2018-01-16T04:49:45.368Z,0.00
2018-01-16T04:50:45.326Z,0.00
2018-01-16T04:51:45.353Z,0.00
2018-01-16T04:52:45.341Z,0.00
2018-01-16T04:53:45.373Z,0.00
2018-01-16T04:54:45.316Z,0.00
2018-01-16T04:55:45.291Z,0.00
2018-01-16T04:56:45.331Z,0.00
2018-01-16T04:57:45.304Z,0.00
2018-01-16T04:58:45.281Z,0.00
2018-01-16T04:59:45.247Z,0.00
2018-01-16T05:00:45.297Z,0.00
2018-01-16T05:01:45.247Z,0.00
2018-01-16T05:02:45.263Z,0.00
2018-01-16T05:03:45.381Z,0.00
2018-01-16T05:04:45.264Z,0.00
2018-01-16T05:05:45.263Z,0.00
2018-01-16T05:06:45.212Z,0.00
2018-01-16T05:07:45.195Z,0.00
2018-01-16T05:08:45.184Z,0.00
2018-01-16T05:09:45.174Z,0.00
2018-01-16T05:10:45.181Z,0.00
2018-01-16T05:11:45.779Z,0.00
2018-01-16T05:12:45.188Z,0.00
2018-01-16T05:13:45.144Z,0.00
2018-01-16T05:14:45.142Z,0.00
2018-01-16T05:15:45.796Z,0.00
2018-01-16T05:16:45.105Z,0.00
2018-01-16T05:17:45.124Z,0.00
2018-01-16T05:18:45.098Z,0.00
2018-01-16T05:19:45.813Z,0.00
2018-01-16T05:20:45.147Z,0.00
2018-01-16T05:21:45.093Z,0.00
2018-01-16T05:22:45.058Z,0.00
2018-01-16T05:23:45.059Z,0.00
2018-01-16T05:24:45.080Z,0.00
2018-01-16T05:25:45.036Z,0.00
2018-01-16T05:26:45.025Z,0.00
2018-01-16T05:27:45.016Z,0.00
2018-01-16T05:28:45.012Z,0.00
2018-01-16T05:29:45.023Z,0.00
2018-01-16T05:30:44.986Z,0.00
2018-01-16T05:31:44.987Z,0.00
2018-01-16T05:32:44.993Z,0.00
2018-01-16T05:33:45.022Z,0.00
2018-01-16T05:34:44.953Z,0.00
2018-01-16T05:35:44.980Z,0.00
2018-01-16T05:36:44.939Z,0.00
2018-01-16T05:37:44.929Z,0.00
2018-01-16T05:38:44.968Z,0.00
2018-01-16T05:39:44.945Z,0.00
2018-01-16T05:40:44.916Z,0.00
2018-01-16T05:41:44.894Z,0.00
2018-01-16T05:42:44.964Z,0.00
2018-01-16T05:43:44.994Z,0.00
2018-01-16T05:44:44.894Z,0.00
2018-01-16T05:45:45.006Z,0.00
2018-01-16T05:46:44.932Z,0.00
2018-01-16T05:47:44.840Z,0.00
2018-01-16T05:48:44.920Z,0.00
2018-01-16T05:49:44.842Z,0.00
2018-01-16T05:50:44.870Z,0.00
2018-01-16T05:51:44.850Z,0.00
2018-01-16T05:52:44.829Z,0.00
2018-01-16T05:53:44.797Z,0.00
2018-01-16T05:54:44.793Z,0.00
2018-01-16T05:55:45.559Z,0.00
2018-01-16T05:56:45.334Z,0.00
2018-01-16T05:57:44.842Z,0.00
2018-01-16T05:58:44.802Z,0.00
2018-01-16T05:59:44.876Z,0.00
2018-01-16T06:00:45.154Z,0.00
2018-01-16T06:01:44.747Z,0.00
2018-01-16T06:02:44.715Z,0.00
2018-01-16T06:03:44.744Z,0.00
2018-01-16T06:04:44.717Z,0.00
2018-01-16T06:05:44.740Z,0.00
2018-01-16T06:06:45.015Z,0.00
2018-01-16T06:07:44.782Z,0.00
2018-01-16T06:08:44.800Z,0.00
2018-01-16T06:09:44.940Z,0.00
2018-01-16T06:10:44.762Z,0.00
2018-01-16T06:12:02.603Z,0.00
2018-01-16T06:12:56.974Z,0.00
2018-01-16T06:13:53.119Z,0.00
2018-01-16T06:14:54.813Z,0.00
2018-01-16T06:15:53.066Z,0.00
2018-01-16T06:17:01.114Z,0.00
2018-01-16T06:17:53.064Z,0.00
2018-01-16T06:18:53.048Z,0.00
2018-01-16T06:19:53.036Z,0.00
2018-01-16T06:20:53.047Z,0.00
2018-01-16T06:21:53.049Z,0.00
2018-01-16T06:22:53.019Z,0.00
2018-01-16T06:23:53.032Z,0.00
2018-01-16T06:24:54.845Z,0.00
2018-01-16T06:25:53.137Z,0.00
2018-01-16T06:26:53.045Z,0.00
2018-01-16T06:27:52.970Z,0.00
2018-01-16T06:28:53.000Z,0.00
2018-01-16T06:29:53.019Z,0.00
2018-01-16T06:30:53.077Z,0.00
2018-01-16T06:31:52.969Z,0.00
2018-01-16T06:32:55.705Z,0.00
2018-01-16T06:33:56.319Z,0.00
2018-01-16T06:37:57.535Z,0.00
2018-01-16T06:38:58.203Z,0.00
2018-01-16T06:41:41.750Z,0.00
2018-01-16T06:42:43.428Z,0.00
2018-01-16T06:45:25.087Z,0.00
2018-01-16T06:46:25.046Z,0.00
2018-01-16T06:49:29.166Z,0.00
2018-01-16T06:50:20.045Z,0.00
2018-01-16T06:53:04.986Z,0.00
2018-01-16T06:54:05.178Z,0.00
2018-01-16T06:56:47.512Z,0.00
2018-01-16T06:59:51.669Z,4.00
2018-01-16T07:00:51.185Z,0.00
2018-01-16T07:03:35.190Z,4.00
2018-01-16T07:04:35.210Z,4.00
2018-01-16T07:07:18.689Z,8.00
2018-01-16T07:08:18.608Z,12.00
2018-01-16T07:09:18.529Z,12.00
2018-01-16T07:10:19.386Z,16.00
2018-01-16T07:11:18.929Z,16.00
2018-01-16T07:12:18.954Z,20.00
2018-01-16T07:13:18.449Z,24.00
2018-01-16T07:14:18.447Z,28.00
2018-01-16T07:15:18.456Z,28.00
2018-01-16T07:16:18.451Z,32.00
2018-01-16T07:17:18.417Z,36.00
2018-01-16T07:18:18.416Z,36.00
2018-01-16T07:19:18.445Z,40.00
2018-01-16T07:20:18.401Z,40.00
2018-01-16T07:21:18.386Z,44.00
2018-01-16T07:22:18.376Z,48.00
2018-01-16T07:23:18.360Z,52.00
2018-01-16T07:24:18.376Z,52.00
2018-01-16T07:25:18.346Z,56.00
2018-01-16T07:26:18.370Z,64.00
2018-01-16T07:27:18.338Z,80.00
2018-01-16T07:28:18.342Z,88.00
2018-01-16T07:29:18.351Z,96.00
2018-01-16T07:30:18.304Z,104.00
2018-01-16T07:31:18.310Z,124.00
2018-01-16T07:32:18.309Z,128.00
2018-01-16T07:33:18.284Z,136.00
2018-01-16T07:34:18.278Z,148.00
2018-01-16T07:35:18.304Z,156.00
2018-01-16T07:36:18.263Z,160.00
2018-01-16T07:37:18.276Z,164.00
2018-01-16T07:38:18.248Z,172.00
2018-01-16T07:39:18.235Z,180.00
2018-01-16T07:40:18.224Z,192.00
2018-01-16T07:41:18.226Z,204.00
2018-01-16T07:42:18.205Z,216.00
2018-01-16T07:43:18.206Z,220.00
2018-01-16T07:44:18.196Z,232.00
2018-01-16T07:45:18.220Z,244.00
2018-01-16T07:46:18.184Z,252.00
2018-01-16T07:47:18.167Z,260.00
2018-01-16T07:48:18.182Z,272.00
2018-01-16T07:49:18.155Z,296.00
2018-01-16T07:50:18.138Z,300.00
2018-01-16T07:51:19.076Z,304.00
2018-01-16T07:52:18.129Z,296.00
2018-01-16T07:53:18.137Z,304.00
2018-01-16T07:54:18.110Z,328.00
2018-01-16T07:55:18.096Z,324.00
2018-01-16T07:56:18.091Z,340.00
2018-01-16T07:57:18.146Z,360.00
2018-01-16T07:58:18.074Z,396.00
2018-01-16T07:59:18.070Z,424.00
2018-01-16T08:00:18.060Z,460.00
2018-01-16T08:01:18.057Z,444.00
2018-01-16T08:02:18.603Z,436.00
2018-01-16T08:03:18.024Z,440.00
2018-01-16T08:04:18.018Z,408.00
2018-01-16T08:05:18.016Z,436.00
2018-01-16T08:06:18.014Z,604.00
2018-01-16T08:07:18.028Z,768.00
2018-01-16T08:08:18.002Z,672.00
2018-01-16T08:09:17.977Z,520.00
2018-01-16T08:10:17.968Z,536.00
2018-01-16T08:11:17.958Z,868.00
2018-01-16T08:12:17.966Z,984.00
2018-01-16T08:13:17.942Z,884.00
2018-01-16T08:14:17.970Z,740.00
2018-01-16T08:15:17.942Z,796.00
2018-01-16T08:16:17.990Z,740.00
2018-01-16T08:17:17.922Z,596.00
2018-01-16T08:18:18.609Z,568.00
2018-01-16T08:19:17.907Z,588.00
2018-01-16T08:20:17.887Z,608.00
2018-01-16T08:21:17.915Z,604.00
2018-01-16T08:22:17.891Z,592.00
2018-01-16T08:23:17.865Z,620.00
2018-01-16T08:24:17.875Z,656.00
2018-01-16T08:25:17.838Z,660.00
2018-01-16T08:26:17.837Z,720.00
2018-01-16T08:27:17.847Z,688.00
2018-01-16T08:28:17.824Z,680.00
2018-01-16T08:29:17.825Z,648.00
2018-01-16T08:30:17.820Z,648.00
2018-01-16T08:31:17.792Z,696.00
2018-01-16T08:32:17.798Z,664.00
2018-01-16T08:33:17.796Z,680.00
2018-01-16T08:34:17.779Z,620.00
2018-01-16T08:35:17.774Z,624.00
2018-01-16T08:36:17.754Z,620.00
2018-01-16T08:37:18.599Z,612.00
2018-01-16T08:38:17.742Z,624.00
2018-01-16T08:39:17.761Z,676.00
2018-01-16T08:40:17.716Z,768.00
2018-01-16T08:41:18.611Z,848.00
2018-01-16T08:42:17.727Z,1012.00
2018-01-16T08:43:17.694Z,1164.00
2018-01-16T08:44:17.685Z,1404.00
2018-01-16T08:45:17.751Z,1900.00
2018-01-16T08:46:17.685Z,1764.00
2018-01-16T08:47:17.655Z,1596.00
2018-01-16T08:48:17.653Z,1428.00
2018-01-16T08:49:17.661Z,1492.00
2018-01-16T08:50:17.635Z,1536.00
2018-01-16T08:51:18.683Z,1244.00
2018-01-16T08:52:17.617Z,1120.00
2018-01-16T08:53:17.613Z,1096.00
2018-01-16T08:54:17.620Z,1052.00
2018-01-16T08:55:17.592Z,1060.00
2018-01-16T08:56:17.609Z,1076.00
2018-01-16T08:57:17.591Z,1196.00
2018-01-16T08:58:17.585Z,1304.00
2018-01-16T08:59:17.558Z,1444.00
2018-01-16T09:00:17.552Z,1852.00
2018-01-16T09:01:17.561Z,1392.00
2018-01-16T09:02:17.538Z,940.00
2018-01-16T09:03:17.540Z,1184.00
2018-01-16T09:04:17.563Z,1124.00
2018-01-16T09:05:17.506Z,1000.00
2018-01-16T09:06:17.557Z,936.00
2018-01-16T09:07:17.498Z,940.00
2018-01-16T09:08:17.493Z,976.00
2018-01-16T09:09:17.483Z,1048.00
2018-01-16T09:10:18.106Z,1252.00
2018-01-16T09:11:17.477Z,1404.00
2018-01-16T09:12:17.459Z,1552.00
2018-01-16T09:13:17.460Z,1604.00
2018-01-16T09:14:17.455Z,1988.00
2018-01-16T09:15:17.433Z,1920.00
2018-01-16T09:16:17.434Z,1880.00
2018-01-16T09:17:17.445Z,2068.00
2018-01-16T09:18:17.425Z,2424.00
2018-01-16T09:19:17.460Z,2548.00
2018-01-16T09:20:17.407Z,2980.00
2018-01-16T09:21:17.389Z,3276.00
2018-01-16T09:22:17.406Z,3572.00
2018-01-16T09:23:17.372Z,3556.00
2018-01-16T09:24:17.371Z,3884.00
2018-01-16T09:25:17.363Z,4608.00
2018-01-16T09:26:17.363Z,4376.00
2018-01-16T09:27:17.341Z,3628.00
2018-01-16T09:28:17.339Z,2760.00
2018-01-16T09:29:17.345Z,2576.00
2018-01-16T09:30:17.323Z,2552.00
2018-01-16T09:31:17.350Z,2140.00
2018-01-16T09:32:17.301Z,2176.00
2018-01-16T09:33:17.328Z,2208.00
2018-01-16T09:34:17.318Z,1784.00
2018-01-16T09:35:17.286Z,1564.00
2018-01-16T09:36:17.285Z,1616.00
2018-01-16T09:37:17.305Z,1500.00
2018-01-16T09:38:17.283Z,1448.00
2018-01-16T09:39:17.271Z,1448.00
2018-01-16T09:40:17.260Z,1456.00
2018-01-16T09:41:17.308Z,1436.00
2018-01-16T09:42:17.248Z,1668.00
2018-01-16T09:43:17.243Z,1748.00
2018-01-16T09:44:17.231Z,1544.00
2018-01-16T09:45:17.224Z,1304.00
2018-01-16T09:46:17.228Z,948.00
2018-01-16T09:47:17.204Z,768.00
2018-01-16T09:48:17.199Z,740.00
2018-01-16T09:49:17.186Z,756.00
2018-01-16T09:50:17.224Z,648.00
2018-01-16T09:51:18.129Z,660.00
2018-01-16T09:52:17.169Z,856.00
2018-01-16T09:53:17.172Z,992.00
2018-01-16T09:54:17.174Z,1316.00
2018-01-16T09:55:17.147Z,1560.00
2018-01-16T09:56:17.145Z,1648.00
2018-01-16T09:57:17.137Z,1580.00
2018-01-16T09:58:17.137Z,1744.00
2018-01-16T09:59:17.133Z,1888.00
2018-01-16T10:00:17.112Z,1600.00
2018-01-16T10:01:17.108Z,1432.00
2018-01-16T10:02:17.098Z,1644.00
2018-01-16T10:03:17.102Z,1912.00
2018-01-16T10:04:17.090Z,2096.00
2018-01-16T10:05:17.082Z,2180.00
2018-01-16T10:06:17.082Z,2192.00
2018-01-16T10:07:17.071Z,2224.00
2018-01-16T10:08:17.066Z,2052.00
2018-01-16T10:09:17.070Z,2092.00
2018-01-16T10:10:17.054Z,2416.00
2018-01-16T10:11:17.054Z,3644.00
2018-01-16T10:12:17.029Z,5584.00
2018-01-16T10:13:17.023Z,6308.00
2018-01-16T10:14:17.031Z,5716.00
2018-01-16T10:15:17.008Z,5004.00
2018-01-16T10:16:17.007Z,4384.00
2018-01-16T10:17:17.652Z,4748.00
2018-01-16T10:18:17.003Z,4976.00
2018-01-16T10:19:16.982Z,4452.00
2018-01-16T10:20:16.980Z,3996.00
2018-01-16T10:21:16.975Z,3740.00
2018-01-16T10:22:17.000Z,4316.00
2018-01-16T10:23:16.958Z,3896.00
2018-01-16T10:24:16.963Z,3536.00
2018-01-16T10:25:16.977Z,2900.00
2018-01-16T10:26:16.941Z,3048.00
2018-01-16T10:27:16.937Z,2832.00
2018-01-16T10:28:16.946Z,2716.00
2018-01-16T10:29:16.919Z,3660.00
2018-01-16T10:30:16.919Z,5008.00
2018-01-16T10:31:16.936Z,4212.00
2018-01-16T10:32:16.922Z,3136.00
2018-01-16T10:33:16.902Z,2332.00
2018-01-16T10:34:16.897Z,3064.00
2018-01-16T10:35:19.644Z,3848.00
2018-01-16T10:36:16.876Z,3400.00
2018-01-16T10:37:16.881Z,2912.00
2018-01-16T10:38:16.871Z,4344.00
2018-01-16T10:39:17.656Z,6312.00
2018-01-16T10:40:16.863Z,4788.00
2018-01-16T10:41:16.875Z,5288.00
2018-01-16T10:42:16.850Z,3320.00
2018-01-16T10:43:16.852Z,2496.00
2018-01-16T10:44:16.827Z,2584.00
2018-01-16T10:45:16.822Z,2188.00
2018-01-16T10:46:16.828Z,1996.00
2018-01-16T10:47:16.844Z,2104.00
2018-01-16T10:48:16.814Z,1488.00
2018-01-16T10:49:16.804Z,1452.00
2018-01-16T10:50:16.828Z,1660.00
2018-01-16T10:51:16.798Z,2176.00
2018-01-16T10:52:16.814Z,1940.00
2018-01-16T10:53:16.814Z,2296.00
2018-01-16T10:54:16.785Z,3484.00
2018-01-16T10:55:16.764Z,3656.00
2018-01-16T10:56:16.762Z,3136.00
2018-01-16T10:57:16.748Z,2920.00
2018-01-16T10:58:16.770Z,2648.00
2018-01-16T10:59:16.770Z,2412.00
2018-01-16T11:00:16.739Z,2584.00
2018-01-16T11:01:16.742Z,3376.00
2018-01-16T11:02:16.726Z,2264.00
2018-01-16T11:03:16.724Z,1136.00
2018-01-16T11:04:16.715Z,1980.00
2018-01-16T11:05:16.713Z,1452.00
2018-01-16T11:06:16.705Z,1492.00
2018-01-16T11:07:16.693Z,2228.00
2018-01-16T11:08:16.686Z,2180.00
2018-01-16T11:09:17.653Z,2328.00
2018-01-16T11:10:16.676Z,1840.00
2018-01-16T11:11:16.662Z,1980.00
2018-01-16T11:12:16.656Z,2064.00
2018-01-16T11:13:16.664Z,1552.00
2018-01-16T11:14:16.653Z,1336.00
2018-01-16T11:15:16.642Z,1296.00
2018-01-16T11:16:16.645Z,1092.00
2018-01-16T11:17:16.629Z,1008.00
2018-01-16T11:18:16.621Z,736.00
2018-01-16T11:19:16.617Z,480.00
2018-01-16T11:20:16.631Z,432.00
2018-01-16T11:21:16.628Z,368.00
2018-01-16T11:22:16.616Z,300.00
2018-01-16T11:23:16.590Z,412.00
2018-01-16T11:24:16.584Z,620.00
2018-01-16T11:25:16.580Z,920.00
2018-01-16T11:26:16.566Z,960.00
2018-01-16T11:27:16.560Z,1276.00
2018-01-16T11:28:16.563Z,1168.00
2018-01-16T11:29:16.579Z,1236.00
2018-01-16T11:30:16.623Z,1068.00
2018-01-16T11:31:16.565Z,1044.00
2018-01-16T11:32:16.538Z,1180.00
2018-01-16T11:33:16.518Z,1148.00
2018-01-16T11:34:16.510Z,1956.00
2018-01-16T11:35:16.509Z,1296.00
2018-01-16T11:36:16.509Z,992.00
2018-01-16T11:37:16.522Z,944.00
2018-01-16T11:38:16.504Z,828.00
2018-01-16T11:39:16.480Z,820.00
2018-01-16T11:40:16.487Z,804.00
2018-01-16T11:41:16.483Z,812.00
2018-01-16T11:42:16.455Z,856.00
2018-01-16T11:43:16.480Z,856.00
2018-01-16T11:44:16.447Z,848.00
2018-01-16T11:45:19.174Z,888.00
2018-01-16T11:46:16.462Z,892.00
2018-01-16T11:47:17.222Z,972.00
2018-01-16T11:48:16.411Z,1252.00
2018-01-16T11:49:16.408Z,1520.00
2018-01-16T11:50:16.450Z,1084.00
2018-01-16T11:51:16.412Z,1116.00
2018-01-16T11:52:16.392Z,2676.00
2018-01-16T11:53:16.390Z,2388.00
2018-01-16T11:53:28.371Z,1452.00
2018-01-16T11:55:16.350Z,1776.00
2018-01-16T11:56:16.354Z,2088.00
2018-01-16T11:57:16.344Z,1392.00
2018-01-16T11:58:16.334Z,1320.00
2018-01-16T11:59:16.324Z,1296.00
2018-01-16T12:00:16.309Z,1304.00
2018-01-16T12:01:16.310Z,1312.00
2018-01-16T12:02:16.306Z,1388.00
2018-01-16T12:03:19.197Z,1380.00
2018-01-16T12:04:16.295Z,1448.00
2018-01-16T12:05:17.172Z,1652.00
2018-01-16T12:06:16.294Z,2212.00
2018-01-16T12:07:16.252Z,3056.00
2018-01-16T12:08:16.260Z,3180.00
2018-01-16T12:09:16.243Z,3612.00
2018-01-16T12:10:16.238Z,4568.00
2018-01-16T12:11:17.182Z,5740.00
2018-01-16T12:12:16.231Z,6020.00
2018-01-16T12:13:16.220Z,5540.00
2018-01-16T12:14:16.201Z,4308.00
2018-01-16T12:15:16.194Z,3844.00
2018-01-16T12:16:16.194Z,3856.00
2018-01-16T12:17:16.174Z,4476.00
2018-01-16T12:18:16.684Z,4532.00
2018-01-16T12:19:16.162Z,5188.00
2018-01-16T12:20:16.147Z,4512.00
2018-01-16T12:21:16.150Z,3400.00
2018-01-16T12:22:16.158Z,1952.00
2018-01-16T12:23:16.124Z,1664.00
2018-01-16T12:24:16.127Z,1588.00
2018-01-16T12:25:16.123Z,1940.00
2018-01-16T12:26:16.132Z,2240.00
2018-01-16T12:27:16.122Z,3608.00
2018-01-16T12:28:16.102Z,5328.00
2018-01-16T12:29:16.126Z,5460.00
2018-01-16T12:30:16.684Z,2932.00
2018-01-16T12:31:16.080Z,2508.00
2018-01-16T12:32:16.079Z,2876.00
2018-01-16T12:33:18.683Z,2272.00
2018-01-16T12:34:17.582Z,1984.00
2018-01-16T12:35:16.288Z,1760.00
2018-01-16T12:36:16.032Z,1488.00
2018-01-16T12:37:16.035Z,1420.00
2018-01-16T12:38:16.040Z,1380.00
2018-01-16T12:39:16.035Z,1252.00
2018-01-16T12:40:16.025Z,1288.00
2018-01-16T12:41:15.999Z,1460.00
2018-01-16T12:42:16.027Z,1280.00
2018-01-16T12:43:15.993Z,1256.00
2018-01-16T12:44:15.980Z,1300.00
2018-01-16T12:45:16.007Z,1364.00
2018-01-16T12:46:15.999Z,1420.00
2018-01-16T12:47:15.982Z,1520.00
2018-01-16T12:48:15.958Z,1612.00
2018-01-16T12:49:15.955Z,1476.00
2018-01-16T12:50:15.953Z,1552.00
2018-01-16T12:51:15.948Z,1564.00
2018-01-16T12:52:16.684Z,1432.00
2018-01-16T12:53:15.942Z,1476.00
2018-01-16T12:54:15.915Z,1672.00
2018-01-16T12:55:15.921Z,1584.00
2018-01-16T12:56:15.898Z,1356.00
2018-01-16T12:57:15.885Z,1400.00
2018-01-16T12:58:16.723Z,1568.00
2018-01-16T12:59:15.899Z,1484.00
2018-01-16T13:00:15.906Z,1396.00
2018-01-16T13:01:16.743Z,1364.00
2018-01-16T13:02:15.852Z,1360.00
2018-01-16T13:03:15.873Z,1164.00
2018-01-16T13:04:15.854Z,1088.00
2018-01-16T13:05:15.874Z,1084.00
2018-01-16T13:06:15.849Z,1128.00
2018-01-16T13:07:15.853Z,1264.00